Roald Amundsen — DARG — position and weather

sailwx.info

Track history (hours):
 
Tides and Currents Weather Stations Pressure Air Temp Water Temp Dewpoint Dewpoint Depression Visibility Wind Speed Wind Dir Waves Ship Positions

Roald Amundsen (Germany)

Built as a deep sea lugger in 1952. Converted and rigged as a traditional brig in 1992.

Ship's website: http://www.sailtraining.de/

Last reported at 2017-Mar-28 07:27 UTC. Time now 2017-Mar-28 08:17 UTC.
Position N 54°06' E 009°20'.

Length 50 m; beam 7.4 m; draft 4.5 m.

Type: Sailing vessel. MMSI: 211215170.

Date/timePositionNaut miles runAvg speedWind from/ knotsBaromVisibWave heightAir tempDewpointWater temp
2017-Mar-28 07:27N 54°06' E 009°20'7 7.9
2017-Mar-28 06:33N 53°59' E 009°17'7 7.0
2017-Mar-28 05:34N 53°54' E 009°09'0 0.0
2017-Mar-28 04:34N 53°54' E 009°09'1 1.2
2017-Mar-28 03:32N 53°53' E 009°10'0 0.1
2017-Mar-28 02:32N 53°53' E 009°10'0 0.0
2017-Mar-28 01:33N 53°53' E 009°10'0 0.0
2017-Mar-28 00:33N 53°53' E 009°10'0 0.0
2017-Mar-27 23:33N 53°53' E 009°10'0 0.0
2017-Mar-27 22:33N 53°53' E 009°10'6 6.5
2017-Mar-27 21:34N 53°51' E 008°59'9 8.9
2017-Mar-27 20:34N 53°52' E 008°44'8 8.3
2017-Mar-27 19:34N 53°58' E 008°34'7 6.4
2017-Mar-27 18:33N 53°59' E 008°23'21 0.7
2017-Mar-26 13:26N 54°11' E 007°54'5 1.7
2017-Mar-26 10:30N 54°09' E 008°02'5 0.9
2017-Mar-26 05:07N 54°11' E 007°54'0 0.0
2017-Mar-26 04:16N 54°11' E 007°54'0 0.0
2017-Mar-26 03:34N 54°11' E 007°54'0 0.0
2017-Mar-26 02:25N 54°11' E 007°54'0 0.0
2017-Mar-25 17:10N 54°11' E 007°54'2 3.4
2017-Mar-25 16:33N 54°09' E 007°54'6 6.0
2017-Mar-25 15:33N 54°03' E 007°49'5 5.5
2017-Mar-25 14:33N 53°58' E 007°46'8 4.1
2017-Mar-25 12:31N 53°53' E 007°35'10 2.9
2017-Mar-25 09:15N 53°49' E 007°20'2 3.1
2017-Mar-25 08:33N 53°48' E 007°17'4 3.7
2017-Mar-25 07:33N 53°48' E 007°11'3 2.8
2017-Mar-25 06:34N 53°47' E 007°06'6 5.7
2017-Mar-25 05:33N 53°46' E 006°57'8 8.1
2017-Mar-25 04:33N 53°45' E 006°43'8 7.6
2017-Mar-25 03:33N 53°43' E 006°31'7 6.8
2017-Mar-25 02:33N 53°42' E 006°20'6 6.0
2017-Mar-25 01:33N 53°40' E 006°10'6 5.7
2017-Mar-25 00:33N 53°38' E 006°01'6 5.4
2017-Mar-24 23:32N 53°36' E 005°52'5 5.3
2017-Mar-24 22:33N 53°35' E 005°44'5 5.1
2017-Mar-24 21:33N 53°33' E 005°36'5 4.9
2017-Mar-24 20:34N 53°31' E 005°28'5 5.1
2017-Mar-24 19:33N 53°29' E 005°20'7 5.5
2017-Mar-24 18:22N 53°27' E 005°10'5 5.8
2017-Mar-24 17:33N 53°25' E 005°03'7 5.5
2017-Mar-24 16:19N 53°20' E 004°54'10 5.6
2017-Mar-24 14:33N 53°14' E 004°41'6 5.9
2017-Mar-24 13:33N 53°09' E 004°37'7 7.3
2017-Mar-24 12:34N 53°02' E 004°35'8 7.8
2017-Mar-24 11:34N 52°54' E 004°33'7 7.2
2017-Mar-24 10:34N 52°47' E 004°31'6 6.4
2017-Mar-24 09:34N 52°41' E 004°31'6 5.8
2017-Mar-24 08:34N 52°35' E 004°30'5 4.6
2017-Mar-24 07:33N 52°31' E 004°26'4 3.9
2017-Mar-24 06:34N 52°27' E 004°24'4 3.6
2017-Mar-24 05:33N 52°24' E 004°24'4 4.1
2017-Mar-24 04:34N 52°20' E 004°23'5 4.6
2017-Mar-24 03:34N 52°15' E 004°20'5 5.0
2017-Mar-24 02:33N 52°12' E 004°15'5 5.2
2017-Mar-24 01:34N 52°08' E 004°09'5 5.2
2017-Mar-24 00:33N 52°05' E 004°03'5 4.8
2017-Mar-23 23:34N 52°01' E 003°57'4 4.3
2017-Mar-23 22:33N 51°58' E 003°53'5 4.6
2017-Mar-23 21:33N 51°55' E 003°47'4 4.2
2017-Mar-23 20:33N 51°52' E 003°42'5 4.2
2017-Mar-23 19:28N 51°49' E 003°37'3 3.5
2017-Mar-23 18:34N 51°47' E 003°33'3 2.7
2017-Mar-23 17:33N 51°45' E 003°29'3 2.8
2017-Mar-23 16:34N 51°43' E 003°26'3 3.3
2017-Mar-23 15:33N 51°41' E 003°22'4 4.0
2017-Mar-23 14:33N 51°38' E 003°17'5 5.1
2017-Mar-23 13:33N 51°35' E 003°11'5 5.2
2017-Mar-23 12:34N 51°31' E 003°05'5 5.0
2017-Mar-23 11:34N 51°27' E 003°01'5 5.3
2017-Mar-23 10:34N 51°22' E 002°58'6 5.5
2017-Mar-23 09:33N 51°18' E 002°52'6 5.6
2017-Mar-23 08:33N 51°14' E 002°56'0 0.1
2017-Mar-23 07:33N 51°13' E 002°56'0 0.0
2017-Mar-23 06:33N 51°13' E 002°56'0 0.0
2017-Mar-23 05:33N 51°13' E 002°56'0 0.0
2017-Mar-23 04:33N 51°13' E 002°56'0 0.0
2017-Mar-23 03:33N 51°13' E 002°56'0 0.0
2017-Mar-23 02:33N 51°13' E 002°56'0 0.0
2017-Mar-23 01:33N 51°13' E 002°56'0 0.0
2017-Mar-23 00:33N 51°13' E 002°56'0 0.0
2017-Mar-22 23:33N 51°13' E 002°56'0 0.0
2017-Mar-22 22:33N 51°13' E 002°56'0 0.0
2017-Mar-22 21:33N 51°13' E 002°56'0 0.0
2017-Mar-22 20:33N 51°13' E 002°56'0 0.0
2017-Mar-22 19:33N 51°13' E 002°56'0 0.0
2017-Mar-22 18:33N 51°13' E 002°56'0 0.0
2017-Mar-22 17:33N 51°13' E 002°56'0 0.0
2017-Mar-22 16:33N 51°13' E 002°56'0 0.0
2017-Mar-22 15:33N 51°13' E 002°56'0 0.0
2017-Mar-22 14:33N 51°13' E 002°56'0 0.0
2017-Mar-22 13:33N 51°13' E 002°56'0 0.0
2017-Mar-22 12:33N 51°13' E 002°56'0 0.0
2017-Mar-22 11:33N 51°13' E 002°56'0 0.0
2017-Mar-22 10:33N 51°13' E 002°56'0 0.0
2017-Mar-22 09:33N 51°13' E 002°56'0 0.0
2017-Mar-22 08:33N 51°13' E 002°56'0 0.0
2017-Mar-22 07:33N 51°13' E 002°56'0 0.0
2017-Mar-22 06:33N 51°13' E 002°56'0 0.0
2017-Mar-22 05:33N 51°13' E 002°56'0 0.0
2017-Mar-22 04:34N 51°13' E 002°56'0 0.0
2017-Mar-22 03:33N 51°13' E 002°56'0 0.0
2017-Mar-22 02:33N 51°13' E 002°56'0 0.0
2017-Mar-22 01:33N 51°13' E 002°56'0 0.0
2017-Mar-22 00:33N 51°13' E 002°56'0 0.0
2017-Mar-21 23:33N 51°13' E 002°56'0 0.0
2017-Mar-21 22:30N 51°13' E 002°56'0 0.0
2017-Mar-21 21:33N 51°13' E 002°56'0 0.0
2017-Mar-21 20:33N 51°13' E 002°56'0 0.0
2017-Mar-21 19:33N 51°13' E 002°56'0 0.0
2017-Mar-21 18:33N 51°13' E 002°56'0 0.0
2017-Mar-21 17:33N 51°13' E 002°56'0 0.0
2017-Mar-21 16:33N 51°13' E 002°56'0 0.0
2017-Mar-21 15:33N 51°13' E 002°56'0 0.0
2017-Mar-21 14:33N 51°13' E 002°56'0 0.0
2017-Mar-21 13:33N 51°13' E 002°56'0 0.0
2017-Mar-21 12:33N 51°13' E 002°56'0 0.0
2017-Mar-21 11:33N 51°13' E 002°56'0 0.0
2017-Mar-21 10:33N 51°13' E 002°56'0 0.0
2017-Mar-21 09:33N 51°13' E 002°56'0 0.0
2017-Mar-21 08:32N 51°13' E 002°56'0 0.0
2017-Mar-21 07:32N 51°13' E 002°56'0 0.0
2017-Mar-21 06:33N 51°13' E 002°56'0 0.0
2017-Mar-21 05:33N 51°13' E 002°56'0 0.0
2017-Mar-21 04:33N 51°13' E 002°56'0 0.0
2017-Mar-21 03:33N 51°13' E 002°56'0 0.0
2017-Mar-21 02:33N 51°13' E 002°56'0 0.0
2017-Mar-21 01:33N 51°13' E 002°56'0 0.0
2017-Mar-21 00:33N 51°13' E 002°56'0 0.0
2017-Mar-20 23:33N 51°13' E 002°56'0 0.0
2017-Mar-20 22:33N 51°13' E 002°56'0 0.0
2017-Mar-20 21:33N 51°13' E 002°56'0 0.0
2017-Mar-20 20:33N 51°13' E 002°56'0 0.0
2017-Mar-20 19:33N 51°13' E 002°56'0 0.0
2017-Mar-20 18:33N 51°13' E 002°56'0 0.0
2017-Mar-20 17:33N 51°13' E 002°56'0 0.0
2017-Mar-20 16:33N 51°13' E 002°56'1 1.3
2017-Mar-20 15:33N 51°15' E 002°55'7 7.1
2017-Mar-20 14:34N 51°14' E 002°44'7 7.0
2017-Mar-20 13:33N 51°10' E 002°35'6 5.9
2017-Mar-20 12:33N 51°05' E 002°29'4 4.0
2017-Mar-20 11:34N 51°04' E 002°23'0 0.0
2017-Mar-20 10:33N 51°04' E 002°23'0 0.0
2017-Mar-20 09:34N 51°04' E 002°23'0 0.0
2017-Mar-20 08:33N 51°04' E 002°23'0 0.0
2017-Mar-20 07:33N 51°04' E 002°23'0 0.0
2017-Mar-20 06:33N 51°04' E 002°23'0 0.0
2017-Mar-20 05:34N 51°04' E 002°23'0 0.0
2017-Mar-20 04:34N 51°04' E 002°23'0 0.0
2017-Mar-20 03:34N 51°04' E 002°23'0 0.0
2017-Mar-20 02:34N 51°04' E 002°23'0 0.0
2017-Mar-20 01:34N 51°04' E 002°23'0 0.0
2017-Mar-20 00:34N 51°04' E 002°23'0 0.0
2017-Mar-19 23:34N 51°04' E 002°23'0 0.0
2017-Mar-19 22:34N 51°04' E 002°23'0 0.0
2017-Mar-19 21:33N 51°04' E 002°23'0 0.0
2017-Mar-19 20:33N 51°04' E 002°23'0 0.0
2017-Mar-19 19:34N 51°04' E 002°23'0 0.0
2017-Mar-19 18:34N 51°04' E 002°23'0 0.0
2017-Mar-19 17:33N 51°04' E 002°23'0 0.0
2017-Mar-19 16:34N 51°04' E 002°23'3 2.5
2017-Mar-19 15:31N 51°04' E 002°18'8 8.2
2017-Mar-19 14:33N 51°03' E 002°06'7 7.5
2017-Mar-19 13:34N 51°02' E 001°54'7 6.8
2017-Mar-19 12:33N 50°59' E 001°45'6 5.7
2017-Mar-19 11:33N 50°56' E 001°37'4 4.1
2017-Mar-19 10:34N 50°53' E 001°33'29 5.4
2017-Mar-19 05:09N 50°28' E 001°09'37 6.6
2017-Mar-18 23:33N 50°14' E 000°16'7 6.6
2017-Mar-18 22:33N 50°11' E 000°06'6 6.1
2017-Mar-18 21:33N 50°10' W 000°03'6 5.5
2017-Mar-18 20:33N 50°07' W 000°11'4 4.3
2017-Mar-18 19:34N 50°05' W 000°17'4 4.0
2017-Mar-18 18:33N 50°03' W 000°22'5 4.7
2017-Mar-18 17:33N 49°59' W 000°27'6 5.8
2017-Mar-18 16:34N 49°55' W 000°32'6 6.0
2017-Mar-18 15:34N 49°50' W 000°38'6 6.1
2017-Mar-18 14:33N 49°46' W 000°45'8 6.3
2017-Mar-18 13:16N 49°41' W 000°55'4 5.8
2017-Mar-18 12:33N 49°39' W 001°00'5 5.2
2017-Mar-18 11:33N 49°36' W 001°07'5 4.9
2017-Mar-18 10:33N 49°34' W 001°14'  
Track history (hours):
 
Tides and Currents Weather Stations Pressure Air Temp Water Temp Dewpoint Dewpoint Depression Visibility Wind Speed Wind Dir Waves Ship Positions

Roald Amundsen (Germany)

Built as a deep sea lugger in 1952. Converted and rigged as a traditional brig in 1992.

Ship's website: http://www.sailtraining.de/

Last reported at 2017-Mar-28 07:27 UTC. Time now 2017-Mar-28 08:17 UTC.
Position N 54°06' E 009°20'.

Length 50 m; beam 7.4 m; draft 4.5 m.

Type: Sailing vessel. MMSI: 211215170.

Date/timePositionNaut miles runAvg speedWind from/ knotsBaromVisibWave heightAir tempDewpointWater temp
2017-Mar-28 07:27N 54°06' E 009°20'7 7.9
2017-Mar-28 06:33N 53°59' E 009°17'7 7.0
2017-Mar-28 05:34N 53°54' E 009°09'0 0.0
2017-Mar-28 04:34N 53°54' E 009°09'1 1.2
2017-Mar-28 03:32N 53°53' E 009°10'0 0.1
2017-Mar-28 02:32N 53°53' E 009°10'0 0.0
2017-Mar-28 01:33N 53°53' E 009°10'0 0.0
2017-Mar-28 00:33N 53°53' E 009°10'0 0.0
2017-Mar-27 23:33N 53°53' E 009°10'0 0.0
2017-Mar-27 22:33N 53°53' E 009°10'6 6.5
2017-Mar-27 21:34N 53°51' E 008°59'9 8.9
2017-Mar-27 20:34N 53°52' E 008°44'8 8.3
2017-Mar-27 19:34N 53°58' E 008°34'7 6.4
2017-Mar-27 18:33N 53°59' E 008°23'21 0.7
2017-Mar-26 13:26N 54°11' E 007°54'5 1.7
2017-Mar-26 10:30N 54°09' E 008°02'5 0.9
2017-Mar-26 05:07N 54°11' E 007°54'0 0.0
2017-Mar-26 04:16N 54°11' E 007°54'0 0.0
2017-Mar-26 03:34N 54°11' E 007°54'0 0.0
2017-Mar-26 02:25N 54°11' E 007°54'0 0.0
2017-Mar-25 17:10N 54°11' E 007°54'2 3.4
2017-Mar-25 16:33N 54°09' E 007°54'6 6.0
2017-Mar-25 15:33N 54°03' E 007°49'5 5.5
2017-Mar-25 14:33N 53°58' E 007°46'8 4.1
2017-Mar-25 12:31N 53°53' E 007°35'10 2.9
2017-Mar-25 09:15N 53°49' E 007°20'2 3.1
2017-Mar-25 08:33N 53°48' E 007°17'4 3.7
2017-Mar-25 07:33N 53°48' E 007°11'3 2.8
2017-Mar-25 06:34N 53°47' E 007°06'6 5.7
2017-Mar-25 05:33N 53°46' E 006°57'8 8.1
2017-Mar-25 04:33N 53°45' E 006°43'8 7.6
2017-Mar-25 03:33N 53°43' E 006°31'7 6.8
2017-Mar-25 02:33N 53°42' E 006°20'6 6.0
2017-Mar-25 01:33N 53°40' E 006°10'6 5.7
2017-Mar-25 00:33N 53°38' E 006°01'6 5.4
2017-Mar-24 23:32N 53°36' E 005°52'5 5.3
2017-Mar-24 22:33N 53°35' E 005°44'5 5.1
2017-Mar-24 21:33N 53°33' E 005°36'5 4.9
2017-Mar-24 20:34N 53°31' E 005°28'5 5.1
2017-Mar-24 19:33N 53°29' E 005°20'7 5.5
2017-Mar-24 18:22N 53°27' E 005°10'5 5.8
2017-Mar-24 17:33N 53°25' E 005°03'7 5.5
2017-Mar-24 16:19N 53°20' E 004°54'10 5.6
2017-Mar-24 14:33N 53°14' E 004°41'6 5.9
2017-Mar-24 13:33N 53°09' E 004°37'7 7.3
2017-Mar-24 12:34N 53°02' E 004°35'8 7.8
2017-Mar-24 11:34N 52°54' E 004°33'7 7.2
2017-Mar-24 10:34N 52°47' E 004°31'6 6.4
2017-Mar-24 09:34N 52°41' E 004°31'6 5.8
2017-Mar-24 08:34N 52°35' E 004°30'5 4.6
2017-Mar-24 07:33N 52°31' E 004°26'4 3.9
2017-Mar-24 06:34N 52°27' E 004°24'4 3.6
2017-Mar-24 05:33N 52°24' E 004°24'4 4.1
2017-Mar-24 04:34N 52°20' E 004°23'5 4.6
2017-Mar-24 03:34N 52°15' E 004°20'5 5.0
2017-Mar-24 02:33N 52°12' E 004°15'5 5.2
2017-Mar-24 01:34N 52°08' E 004°09'5 5.2
2017-Mar-24 00:33N 52°05' E 004°03'5 4.8
2017-Mar-23 23:34N 52°01' E 003°57'4 4.3
2017-Mar-23 22:33N 51°58' E 003°53'5 4.6
2017-Mar-23 21:33N 51°55' E 003°47'4 4.2
2017-Mar-23 20:33N 51°52' E 003°42'5 4.2
2017-Mar-23 19:28N 51°49' E 003°37'3 3.5
2017-Mar-23 18:34N 51°47' E 003°33'3 2.7
2017-Mar-23 17:33N 51°45' E 003°29'3 2.8
2017-Mar-23 16:34N 51°43' E 003°26'3 3.3
2017-Mar-23 15:33N 51°41' E 003°22'4 4.0
2017-Mar-23 14:33N 51°38' E 003°17'5 5.1
2017-Mar-23 13:33N 51°35' E 003°11'5 5.2
2017-Mar-23 12:34N 51°31' E 003°05'5 5.0
2017-Mar-23 11:34N 51°27' E 003°01'5 5.3
2017-Mar-23 10:34N 51°22' E 002°58'6 5.5
2017-Mar-23 09:33N 51°18' E 002°52'6 5.6
2017-Mar-23 08:33N 51°14' E 002°56'0 0.1
2017-Mar-23 07:33N 51°13' E 002°56'0 0.0
2017-Mar-23 06:33N 51°13' E 002°56'0 0.0
2017-Mar-23 05:33N 51°13' E 002°56'0 0.0
2017-Mar-23 04:33N 51°13' E 002°56'0 0.0
2017-Mar-23 03:33N 51°13' E 002°56'0 0.0
2017-Mar-23 02:33N 51°13' E 002°56'0 0.0
2017-Mar-23 01:33N 51°13' E 002°56'0 0.0
2017-Mar-23 00:33N 51°13' E 002°56'0 0.0
2017-Mar-22 23:33N 51°13' E 002°56'0 0.0
2017-Mar-22 22:33N 51°13' E 002°56'0 0.0
2017-Mar-22 21:33N 51°13' E 002°56'0 0.0
2017-Mar-22 20:33N 51°13' E 002°56'0 0.0
2017-Mar-22 19:33N 51°13' E 002°56'0 0.0
2017-Mar-22 18:33N 51°13' E 002°56'0 0.0
2017-Mar-22 17:33N 51°13' E 002°56'0 0.0
2017-Mar-22 16:33N 51°13' E 002°56'0 0.0
2017-Mar-22 15:33N 51°13' E 002°56'0 0.0
2017-Mar-22 14:33N 51°13' E 002°56'0 0.0
2017-Mar-22 13:33N 51°13' E 002°56'0 0.0
2017-Mar-22 12:33N 51°13' E 002°56'0 0.0
2017-Mar-22 11:33N 51°13' E 002°56'0 0.0
2017-Mar-22 10:33N 51°13' E 002°56'0 0.0
2017-Mar-22 09:33N 51°13' E 002°56'0 0.0
2017-Mar-22 08:33N 51°13' E 002°56'0 0.0
2017-Mar-22 07:33N 51°13' E 002°56'0 0.0
2017-Mar-22 06:33N 51°13' E 002°56'0 0.0
2017-Mar-22 05:33N 51°13' E 002°56'0 0.0
2017-Mar-22 04:34N 51°13' E 002°56'0 0.0
2017-Mar-22 03:33N 51°13' E 002°56'0 0.0
2017-Mar-22 02:33N 51°13' E 002°56'0 0.0
2017-Mar-22 01:33N 51°13' E 002°56'0 0.0
2017-Mar-22 00:33N 51°13' E 002°56'0 0.0
2017-Mar-21 23:33N 51°13' E 002°56'0 0.0
2017-Mar-21 22:30N 51°13' E 002°56'0 0.0
2017-Mar-21 21:33N 51°13' E 002°56'0 0.0
2017-Mar-21 20:33N 51°13' E 002°56'0 0.0
2017-Mar-21 19:33N 51°13' E 002°56'0 0.0
2017-Mar-21 18:33N 51°13' E 002°56'0 0.0
2017-Mar-21 17:33N 51°13' E 002°56'0 0.0
2017-Mar-21 16:33N 51°13' E 002°56'0 0.0
2017-Mar-21 15:33N 51°13' E 002°56'0 0.0
2017-Mar-21 14:33N 51°13' E 002°56'0 0.0
2017-Mar-21 13:33N 51°13' E 002°56'0 0.0
2017-Mar-21 12:33N 51°13' E 002°56'0 0.0
2017-Mar-21 11:33N 51°13' E 002°56'0 0.0
2017-Mar-21 10:33N 51°13' E 002°56'0 0.0
2017-Mar-21 09:33N 51°13' E 002°56'0 0.0
2017-Mar-21 08:32N 51°13' E 002°56'0 0.0
2017-Mar-21 07:32N 51°13' E 002°56'0 0.0
2017-Mar-21 06:33N 51°13' E 002°56'0 0.0
2017-Mar-21 05:33N 51°13' E 002°56'0 0.0
2017-Mar-21 04:33N 51°13' E 002°56'0 0.0
2017-Mar-21 03:33N 51°13' E 002°56'0 0.0
2017-Mar-21 02:33N 51°13' E 002°56'0 0.0
2017-Mar-21 01:33N 51°13' E 002°56'0 0.0
2017-Mar-21 00:33N 51°13' E 002°56'0 0.0
2017-Mar-20 23:33N 51°13' E 002°56'0 0.0
2017-Mar-20 22:33N 51°13' E 002°56'0 0.0
2017-Mar-20 21:33N 51°13' E 002°56'0 0.0
2017-Mar-20 20:33N 51°13' E 002°56'0 0.0
2017-Mar-20 19:33N 51°13' E 002°56'0 0.0
2017-Mar-20 18:33N 51°13' E 002°56'0 0.0
2017-Mar-20 17:33N 51°13' E 002°56'0 0.0
2017-Mar-20 16:33N 51°13' E 002°56'1 1.3
2017-Mar-20 15:33N 51°15' E 002°55'7 7.1
2017-Mar-20 14:34N 51°14' E 002°44'7 7.0
2017-Mar-20 13:33N 51°10' E 002°35'6 5.9
2017-Mar-20 12:33N 51°05' E 002°29'4 4.0
2017-Mar-20 11:34N 51°04' E 002°23'0 0.0
2017-Mar-20 10:33N 51°04' E 002°23'0 0.0
2017-Mar-20 09:34N 51°04' E 002°23'0 0.0
2017-Mar-20 08:33N 51°04' E 002°23'0 0.0
2017-Mar-20 07:33N 51°04' E 002°23'0 0.0
2017-Mar-20 06:33N 51°04' E 002°23'0 0.0
2017-Mar-20 05:34N 51°04' E 002°23'0 0.0
2017-Mar-20 04:34N 51°04' E 002°23'0 0.0
2017-Mar-20 03:34N 51°04' E 002°23'0 0.0
2017-Mar-20 02:34N 51°04' E 002°23'0 0.0
2017-Mar-20 01:34N 51°04' E 002°23'0 0.0
2017-Mar-20 00:34N 51°04' E 002°23'0 0.0
2017-Mar-19 23:34N 51°04' E 002°23'0 0.0
2017-Mar-19 22:34N 51°04' E 002°23'0 0.0
2017-Mar-19 21:33N 51°04' E 002°23'0 0.0
2017-Mar-19 20:33N 51°04' E 002°23'0 0.0
2017-Mar-19 19:34N 51°04' E 002°23'0 0.0
2017-Mar-19 18:34N 51°04' E 002°23'0 0.0
2017-Mar-19 17:33N 51°04' E 002°23'0 0.0
2017-Mar-19 16:34N 51°04' E 002°23'3 2.5
2017-Mar-19 15:31N 51°04' E 002°18'8 8.2
2017-Mar-19 14:33N 51°03' E 002°06'7 7.5
2017-Mar-19 13:34N 51°02' E 001°54'7 6.8
2017-Mar-19 12:33N 50°59' E 001°45'6 5.7
2017-Mar-19 11:33N 50°56' E 001°37'4 4.1
2017-Mar-19 10:34N 50°53' E 001°33'29 5.4
2017-Mar-19 05:09N 50°28' E 001°09'37 6.6
2017-Mar-18 23:33N 50°14' E 000°16'7 6.6
2017-Mar-18 22:33N 50°11' E 000°06'6 6.1
2017-Mar-18 21:33N 50°10' W 000°03'6 5.5
2017-Mar-18 20:33N 50°07' W 000°11'4 4.3
2017-Mar-18 19:34N 50°05' W 000°17'4 4.0
2017-Mar-18 18:33N 50°03' W 000°22'5 4.7
2017-Mar-18 17:33N 49°59' W 000°27'6 5.8
2017-Mar-18 16:34N 49°55' W 000°32'6 6.0
2017-Mar-18 15:34N 49°50' W 000°38'6 6.1
2017-Mar-18 14:33N 49°46' W 000°45'8 6.3
2017-Mar-18 13:16N 49°41' W 000°55'4 5.8
2017-Mar-18 12:33N 49°39' W 001°00'5 5.2
2017-Mar-18 11:33N 49°36' W 001°07'5 4.9
2017-Mar-18 10:33N 49°34' W 001°14'  

Dump ship's entire track history